createdAt,value
2023-02-23T00:00:18.614Z,53
2023-02-23T00:05:18.947Z,53
2023-02-23T00:10:18.601Z,53
2023-02-23T00:15:15.665Z,55
2023-02-23T00:20:15.639Z,56
2023-02-23T00:25:18.645Z,57
2023-02-23T00:30:18.624Z,59
2023-02-23T00:35:18.639Z,60
2023-02-23T00:40:18.988Z,61
2023-02-23T00:45:16.035Z,61
2023-02-23T00:50:15.660Z,62
2023-02-23T00:55:15.686Z,62
2023-02-23T01:00:18.624Z,63
2023-02-23T01:05:18.606Z,63
2023-02-23T01:10:15.641Z,64
2023-02-23T01:15:19.132Z,65
2023-02-23T01:20:18.664Z,66
2023-02-23T01:25:18.596Z,67
2023-02-23T01:30:18.644Z,68
2023-02-23T01:35:15.656Z,69
2023-02-23T01:40:18.672Z,70
2023-02-23T01:45:18.607Z,71
2023-02-23T01:50:19.022Z,72
2023-02-23T01:55:15.660Z,73
2023-02-23T02:00:18.648Z,74
2023-02-23T02:05:18.722Z,74
2023-02-23T02:10:18.605Z,75
2023-02-23T02:15:15.922Z,76
2023-02-23T02:20:18.658Z,77
2023-02-23T02:25:16.117Z,78
2023-02-23T02:30:15.661Z,79
2023-02-23T02:35:18.682Z,80
2023-02-23T02:40:18.694Z,81
2023-02-23T02:45:18.646Z,81
2023-02-23T02:50:18.647Z,82
2023-02-23T02:55:19.095Z,82
2023-02-23T03:00:18.672Z,83
2023-02-23T03:05:18.778Z,83
2023-02-23T03:10:18.731Z,84
2023-02-23T03:15:18.641Z,85
2023-02-23T03:20:18.694Z,85
2023-02-23T03:25:18.699Z,85
2023-02-23T03:30:19.013Z,86
2023-02-23T03:35:18.702Z,86
2023-02-23T03:40:15.559Z,86
2023-02-23T03:45:18.751Z,87
2023-02-23T03:50:18.715Z,87
2023-02-23T03:55:15.745Z,87
2023-02-23T04:00:18.747Z,87
2023-02-23T04:05:19.196Z,88
2023-02-23T04:10:18.666Z,88
2023-02-23T04:15:15.745Z,88
2023-02-23T04:20:18.748Z,88
2023-02-23T04:25:18.723Z,88
2023-02-23T04:30:15.737Z,89
2023-02-23T04:35:16.160Z,89
2023-02-23T04:40:19.212Z,89
2023-02-23T04:45:18.768Z,89
2023-02-23T04:50:18.738Z,89
2023-02-23T04:55:18.784Z,89
2023-02-23T05:00:20.006Z,89
2023-02-23T05:05:20.005Z,89
2023-02-23T05:10:17.094Z,89
2023-02-23T05:15:17.468Z,90
2023-02-23T05:20:17.005Z,90
2023-02-23T05:25:17.096Z,90
2023-02-23T05:30:20.033Z,90
2023-02-23T05:35:20.059Z,90
2023-02-23T05:40:19.973Z,90
2023-02-23T05:45:20.623Z,90
2023-02-23T05:50:20.005Z,90
2023-02-23T05:55:20.031Z,90
2023-02-23T06:00:19.994Z,90
2023-02-23T06:05:19.987Z,90
2023-02-23T06:10:20.075Z,91
2023-02-23T06:15:20.032Z,91
2023-02-23T06:20:20.406Z,91
2023-02-23T06:25:19.989Z,91
2023-02-23T06:30:17.078Z,91
2023-02-23T06:35:20.049Z,91
2023-02-23T06:40:17.080Z,91
2023-02-23T06:45:20.056Z,91
2023-02-23T06:50:17.102Z,91
2023-02-23T06:55:20.606Z,91
2023-02-23T07:00:17.105Z,91
2023-02-23T07:05:17.156Z,91
2023-02-23T07:10:17.129Z,91
2023-02-23T07:15:20.141Z,91
2023-02-23T07:20:20.116Z,91
2023-02-23T07:25:20.006Z,91
2023-02-23T07:30:20.422Z,92
2023-02-23T07:35:16.956Z,92
2023-02-23T07:40:20.224Z,92
2023-02-23T07:45:20.111Z,91
2023-02-23T07:50:17.085Z,92
2023-02-23T07:55:17.101Z,92
2023-02-23T08:00:17.157Z,92
2023-02-23T08:05:20.683Z,92
2023-02-23T08:10:20.154Z,92
2023-02-23T08:15:16.937Z,92
2023-02-23T08:20:20.135Z,92
2023-02-23T08:25:20.066Z,92
2023-02-23T08:30:17.135Z,92
2023-02-23T08:35:20.164Z,92
2023-02-23T08:40:20.649Z,92
2023-02-23T08:45:20.139Z,92
2023-02-23T08:50:17.184Z,92
2023-02-23T08:55:17.201Z,92
2023-02-23T09:00:17.151Z,92
2023-02-23T09:05:20.162Z,92
2023-02-23T09:10:20.232Z,92
2023-02-23T09:15:20.515Z,92
2023-02-23T09:20:20.130Z,92
2023-02-23T09:25:20.087Z,92
2023-02-23T09:30:17.126Z,92
2023-02-23T09:35:17.150Z,93
2023-02-23T09:40:20.130Z,93
2023-02-23T09:45:17.224Z,93
2023-02-23T09:50:17.560Z,93
2023-02-23T09:55:17.196Z,93
2023-02-23T10:00:17.245Z,93
2023-02-23T10:05:17.208Z,93
2023-02-23T10:10:17.276Z,93
2023-02-23T10:15:17.003Z,93
2023-02-23T10:20:20.821Z,93
2023-02-23T10:25:20.204Z,93
2023-02-23T10:30:17.195Z,93
2023-02-23T10:35:20.186Z,93
2023-02-23T10:40:20.220Z,93
2023-02-23T10:45:20.152Z,93
2023-02-23T10:50:17.214Z,93
2023-02-23T10:55:17.640Z,93
2023-02-23T11:00:17.263Z,93
2023-02-23T11:05:20.181Z,93
2023-02-23T11:10:17.095Z,93
2023-02-23T11:15:21.780Z,93
2023-02-23T11:20:20.246Z,93
2023-02-23T11:25:17.310Z,93
2023-02-23T11:30:20.752Z,93
2023-02-23T11:35:20.197Z,93
2023-02-23T11:40:20.179Z,93
2023-02-23T11:45:20.176Z,93
2023-02-23T11:50:17.308Z,93
2023-02-23T11:55:20.233Z,93
2023-02-23T12:00:20.219Z,93
2023-02-23T12:05:20.678Z,93
2023-02-23T12:10:20.246Z,93
2023-02-23T12:15:17.242Z,93
2023-02-23T12:20:17.319Z,93
2023-02-23T12:25:17.245Z,93
2023-02-23T12:30:20.198Z,93
2023-02-23T12:35:20.203Z,93
2023-02-23T12:40:17.714Z,93
2023-02-23T12:45:20.250Z,93
2023-02-23T12:50:17.289Z,93
2023-02-23T12:55:20.248Z,93
2023-02-23T13:00:17.334Z,93
2023-02-23T13:05:17.335Z,93
2023-02-23T13:10:20.818Z,93
2023-02-23T13:15:20.234Z,93
2023-02-23T13:20:20.227Z,93
2023-02-23T13:25:20.264Z,93
2023-02-23T13:30:20.279Z,93
2023-02-23T13:35:17.369Z,93
2023-02-23T13:40:20.299Z,93
2023-02-23T13:45:20.774Z,93
2023-02-23T13:50:20.312Z,93
2023-02-23T13:55:17.787Z,93
2023-02-23T14:00:17.292Z,93
2023-02-23T14:05:20.316Z,93
2023-02-23T14:10:20.300Z,93
2023-02-23T14:15:20.269Z,93
2023-02-23T14:20:27.897Z,93
2023-02-23T14:25:20.447Z,93
2023-02-23T14:30:20.319Z,93
2023-02-23T14:35:20.266Z,93
2023-02-23T14:40:20.330Z,93
2023-02-23T14:45:20.285Z,93
2023-02-23T14:50:20.859Z,93
2023-02-23T14:55:20.380Z,93
2023-02-23T15:00:20.286Z,93
2023-02-23T15:05:17.354Z,93
2023-02-23T15:10:20.341Z,93
2023-02-23T15:15:20.273Z,93
2023-02-23T15:20:20.253Z,93
2023-02-23T15:25:17.890Z,93
2023-02-23T15:30:17.329Z,93
2023-02-23T15:35:20.331Z,93
2023-02-23T15:40:20.450Z,93
2023-02-23T15:45:20.291Z,93
2023-02-23T15:50:34.670Z,93
2023-02-23T15:55:20.824Z,93
2023-02-23T16:00:20.315Z,93
2023-02-23T16:05:20.371Z,93
2023-02-23T16:10:17.331Z,93
2023-02-23T16:15:20.318Z,93
2023-02-23T16:20:20.392Z,93
2023-02-23T16:25:20.365Z,93
2023-02-23T16:30:20.863Z,93
2023-02-23T16:35:18.400Z,93
2023-02-23T16:40:20.339Z,93
2023-02-23T16:45:20.383Z,93
2023-02-23T16:50:19.814Z,93
2023-02-23T16:55:20.449Z,93
2023-02-23T17:00:15.448Z,94
2023-02-23T17:05:15.934Z,94
2023-02-23T17:10:15.443Z,94
2023-02-23T17:15:18.352Z,94
2023-02-23T17:20:15.465Z,94
2023-02-23T17:25:18.400Z,94
2023-02-23T17:30:18.420Z,93
2023-02-23T17:35:18.800Z,94
2023-02-23T17:40:18.363Z,94
2023-02-23T17:45:15.435Z,94
2023-02-23T17:50:18.396Z,94
2023-02-23T17:55:18.436Z,94
2023-02-23T18:00:18.376Z,94
2023-02-23T18:05:18.418Z,93
2023-02-23T18:10:18.881Z,93
2023-02-23T18:15:18.362Z,93
2023-02-23T18:20:18.437Z,93
2023-02-23T18:25:18.385Z,93
2023-02-23T18:30:18.402Z,93
2023-02-23T18:35:15.436Z,93
2023-02-23T18:40:18.455Z,93
2023-02-23T18:45:19.042Z,93
2023-02-23T18:50:18.436Z,93
2023-02-23T18:55:18.453Z,93
2023-02-23T19:00:18.492Z,93
2023-02-23T19:05:20.869Z,93
2023-02-23T19:10:15.528Z,93
2023-02-23T19:15:18.525Z,93
2023-02-23T19:20:15.948Z,93
2023-02-23T19:25:18.464Z,93
2023-02-23T19:30:15.497Z,93
2023-02-23T19:35:15.495Z,93
2023-02-23T19:40:18.435Z,93
2023-02-23T19:45:18.415Z,93
2023-02-23T19:50:19.031Z,93
2023-02-23T19:55:15.544Z,93
2023-02-23T20:00:18.457Z,93
2023-02-23T20:05:18.502Z,93
2023-02-23T20:10:15.530Z,93
2023-02-23T20:15:15.521Z,93
2023-02-23T20:20:15.549Z,93
2023-02-23T20:25:18.962Z,93
2023-02-23T20:30:18.467Z,93
2023-02-23T20:35:18.572Z,93
2023-02-23T20:40:18.702Z,93
2023-02-23T20:45:18.470Z,93
2023-02-23T20:50:15.563Z,93
2023-02-23T20:55:15.515Z,93
2023-02-23T21:00:15.895Z,93
2023-02-23T21:05:15.500Z,93
2023-02-23T21:10:15.502Z,93
2023-02-23T21:15:15.520Z,93
2023-02-23T21:20:15.653Z,93
2023-02-23T21:25:18.530Z,93
2023-02-23T21:30:18.916Z,93
2023-02-23T21:35:18.528Z,93
2023-02-23T21:40:18.514Z,93
2023-02-23T21:45:18.701Z,93
2023-02-23T21:50:18.524Z,93
2023-02-23T21:55:22.241Z,93
2023-02-23T22:00:18.537Z,93
2023-02-23T22:05:16.077Z,93
2023-02-23T22:10:15.711Z,93
2023-02-23T22:15:15.701Z,93
2023-02-23T22:20:15.614Z,93
2023-02-23T22:25:15.575Z,93
2023-02-23T22:30:15.898Z,93
2023-02-23T22:35:19.169Z,93
2023-02-23T22:40:18.624Z,93
2023-02-23T22:45:18.555Z,93
2023-02-23T22:50:15.579Z,93
2023-02-23T22:55:18.543Z,93
2023-02-23T23:00:15.573Z,93
2023-02-23T23:05:18.544Z,93
2023-02-23T23:10:19.132Z,93
2023-02-23T23:15:18.610Z,93
2023-02-23T23:20:15.599Z,93
2023-02-23T23:25:18.595Z,93
2023-02-23T23:30:18.544Z,93
2023-02-23T23:35:18.558Z,93
2023-02-23T23:40:18.553Z,93
2023-02-23T23:45:18.973Z,93
2023-02-23T23:50:18.568Z,93
2023-02-23T23:55:18.585Z,93
